sensor_id;sensor_type;location;lat;lon;timestamp;pressure;altitude;pressure_sealevel;temperature;humidity
12594;BME280;6362;50.208;9.182;2023-04-28T00:01:26;99700.81;;;11.02;52.07
12594;BME280;6362;50.208;9.182;2023-04-28T00:03:51;99697.28;;;11.04;52.22
12594;BME280;6362;50.208;9.182;2023-04-28T00:06:17;99699.03;;;11.04;52.15
12594;BME280;6362;50.208;9.182;2023-04-28T00:08:43;99694.69;;;11.06;51.98
12594;BME280;6362;50.208;9.182;2023-04-28T00:11:11;99691.16;;;11.12;51.82
12594;BME280;6362;50.208;9.182;2023-04-28T00:13:37;99696.34;;;11.12;52.05
12594;BME280;6362;50.208;9.182;2023-04-28T00:16:03;99689.41;;;11.12;51.51
12594;BME280;6362;50.208;9.182;2023-04-28T00:18:29;99686.75;;;11.17;51.52
12594;BME280;6362;50.208;9.182;2023-04-28T00:20:55;99694.53;;;11.18;51.61
12594;BME280;6362;50.208;9.182;2023-04-28T00:23:20;99691.06;;;11.18;51.38
12594;BME280;6362;50.208;9.182;2023-04-28T00:25:53;99684.88;;;11.25;51.53
12594;BME280;6362;50.208;9.182;2023-04-28T00:28:19;99677.09;;;11.23;51.45
12594;BME280;6362;50.208;9.182;2023-04-28T00:30:44;99667.50;;;11.25;51.30
12594;BME280;6362;50.208;9.182;2023-04-28T00:33:11;99671.78;;;11.31;51.11
12594;BME280;6362;50.208;9.182;2023-04-28T00:35:36;99670.94;;;11.29;51.28
12594;BME280;6362;50.208;9.182;2023-04-28T00:38:01;99664.00;;;11.29;51.28
12594;BME280;6362;50.208;9.182;2023-04-28T00:42:59;99652.75;;;11.27;50.99
12594;BME280;6362;50.208;9.182;2023-04-28T00:45:24;99634.53;;;11.26;51.23
12594;BME280;6362;50.208;9.182;2023-04-28T00:47:49;99638.00;;;11.28;50.64
12594;BME280;6362;50.208;9.182;2023-04-28T00:50:15;99635.44;;;11.23;51.07
12594;BME280;6362;50.208;9.182;2023-04-28T00:52:41;99635.41;;;11.25;51.16
12594;BME280;6362;50.208;9.182;2023-04-28T00:55:08;99631.94;;;11.27;51.59
12594;BME280;6362;50.208;9.182;2023-04-28T00:57:34;99625.03;;;11.23;51.12
12594;BME280;6362;50.208;9.182;2023-04-28T00:59:59;99631.13;;;11.21;51.49
12594;BME280;6362;50.208;9.182;2023-04-28T01:02:25;99626.84;;;11.18;51.39
12594;BME280;6362;50.208;9.182;2023-04-28T01:04:51;99630.28;;;11.20;51.40
12594;BME280;6362;50.208;9.182;2023-04-28T01:07:18;99625.09;;;11.19;51.51
12594;BME280;6362;50.208;9.182;2023-04-28T01:09:43;99626.00;;;11.18;51.17
12594;BME280;6362;50.208;9.182;2023-04-28T01:12:10;99619.94;;;11.17;51.57
12594;BME280;6362;50.208;9.182;2023-04-28T01:14:35;99620.78;;;11.18;51.47
12594;BME280;6362;50.208;9.182;2023-04-28T01:17:01;99619.06;;;11.17;51.47
12594;BME280;6362;50.208;9.182;2023-04-28T01:19:26;99620.00;;;11.13;51.86
12594;BME280;6362;50.208;9.182;2023-04-28T01:21:53;99619.06;;;11.15;51.71
12594;BME280;6362;50.208;9.182;2023-04-28T01:24:19;99615.69;;;11.12;52.06
12594;BME280;6362;50.208;9.182;2023-04-28T01:26:45;99610.47;;;11.10;51.89
12594;BME280;6362;50.208;9.182;2023-04-28T01:29:10;99609.63;;;11.11;51.63
12594;BME280;6362;50.208;9.182;2023-04-28T01:31:36;99607.09;;;11.05;51.83
12594;BME280;6362;50.208;9.182;2023-04-28T01:34:01;99601.91;;;11.05;52.26
12594;BME280;6362;50.208;9.182;2023-04-28T01:36:27;99600.22;;;11.01;52.18
12594;BME280;6362;50.208;9.182;2023-04-28T01:38:53;99598.41;;;11.04;52.22
12594;BME280;6362;50.208;9.182;2023-04-28T01:41:19;99593.22;;;11.04;52.27
12594;BME280;6362;50.208;9.182;2023-04-28T01:43:44;99595.06;;;10.96;52.49
12594;BME280;6362;50.208;9.182;2023-04-28T01:46:10;99589.91;;;10.93;52.25
12594;BME280;6362;50.208;9.182;2023-04-28T01:48:35;99593.31;;;11.00;52.14
12594;BME280;6362;50.208;9.182;2023-04-28T01:51:01;99587.31;;;10.93;52.20
12594;BME280;6362;50.208;9.182;2023-04-28T01:53:26;99586.44;;;10.93;52.26
12594;BME280;6362;50.208;9.182;2023-04-28T01:55:52;99584.72;;;10.92;52.12
12594;BME280;6362;50.208;9.182;2023-04-28T01:58:18;99583.00;;;10.92;52.06
12594;BME280;6362;50.208;9.182;2023-04-28T02:00:44;99581.28;;;10.91;52.25
12594;BME280;6362;50.208;9.182;2023-04-28T02:03:10;99565.63;;;10.94;51.78
12594;BME280;6362;50.208;9.182;2023-04-28T02:05:35;99563.88;;;10.93;51.70
12594;BME280;6362;50.208;9.182;2023-04-28T02:08:01;99570.78;;;10.97;51.96
12594;BME280;6362;50.208;9.182;2023-04-28T02:10:27;99564.75;;;10.95;52.36
12594;BME280;6362;50.208;9.182;2023-04-28T02:12:52;99550.88;;;10.95;51.89
12594;BME280;6362;50.208;9.182;2023-04-28T02:15:18;99552.63;;;10.93;51.94
12594;BME280;6362;50.208;9.182;2023-04-28T02:17:43;99549.97;;;10.97;51.80
12594;BME280;6362;50.208;9.182;2023-04-28T02:20:09;99548.25;;;10.96;51.72
12594;BME280;6362;50.208;9.182;2023-04-28T02:22:35;99549.97;;;10.97;51.63
12594;BME280;6362;50.208;9.182;2023-04-28T02:25:00;99546.50;;;10.97;51.88
12594;BME280;6362;50.208;9.182;2023-04-28T02:27:26;99539.50;;;10.99;52.08
12594;BME280;6362;50.208;9.182;2023-04-28T02:29:52;99541.22;;;11.01;51.95
12594;BME280;6362;50.208;9.182;2023-04-28T02:32:17;99543.78;;;11.03;52.05
12594;BME280;6362;50.208;9.182;2023-04-28T02:34:42;99543.00;;;10.98;51.92
12594;BME280;6362;50.208;9.182;2023-04-28T02:37:08;99547.34;;;10.97;51.89
12594;BME280;6362;50.208;9.182;2023-04-28T02:39:33;99545.66;;;10.95;52.37
12594;BME280;6362;50.208;9.182;2023-04-28T02:41:59;99548.28;;;10.95;51.83
12594;BME280;6362;50.208;9.182;2023-04-28T02:44:24;99550.88;;;10.95;52.14
12594;BME280;6362;50.208;9.182;2023-04-28T02:46:50;99549.13;;;10.94;52.13
12594;BME280;6362;50.208;9.182;2023-04-28T02:49:15;99555.22;;;10.93;52.49
12594;BME280;6362;50.208;9.182;2023-04-28T02:51:41;99553.50;;;10.92;52.36
12594;BME280;6362;50.208;9.182;2023-04-28T02:54:06;99550.88;;;10.95;52.52
12594;BME280;6362;50.208;9.182;2023-04-28T02:56:33;99560.53;;;10.87;52.97
12594;BME280;6362;50.208;9.182;2023-04-28T02:58:58;99552.72;;;10.87;54.07
12594;BME280;6362;50.208;9.182;2023-04-28T03:01:24;99553.69;;;10.79;55.28
12594;BME280;6362;50.208;9.182;2023-04-28T03:03:49;99556.31;;;10.76;56.33
12594;BME280;6362;50.208;9.182;2023-04-28T03:06:14;99552.03;;;10.74;57.67
12594;BME280;6362;50.208;9.182;2023-04-28T03:08:40;99554.75;;;10.65;57.86
12594;BME280;6362;50.208;9.182;2023-04-28T03:11:06;99547.09;;;10.54;59.67
12594;BME280;6362;50.208;9.182;2023-04-28T03:13:31;99546.38;;;10.46;60.74
12594;BME280;6362;50.208;9.182;2023-04-28T03:15:57;99542.13;;;10.37;61.04
12594;BME280;6362;50.208;9.182;2023-04-28T03:18:22;99529.22;;;10.31;61.74
12594;BME280;6362;50.208;9.182;2023-04-28T03:20:48;99535.38;;;10.21;62.93
12594;BME280;6362;50.208;9.182;2023-04-28T03:23:14;99538.06;;;10.16;63.18
12594;BME280;6362;50.208;9.182;2023-04-28T03:25:39;99530.34;;;10.09;62.78
12594;BME280;6362;50.208;9.182;2023-04-28T03:28:05;99528.63;;;10.04;63.77
12594;BME280;6362;50.208;9.182;2023-04-28T03:30:30;99532.16;;;9.99;64.45
12594;BME280;6362;50.208;9.182;2023-04-28T03:32:56;99534.84;;;9.93;64.37
12594;BME280;6362;50.208;9.182;2023-04-28T03:35:21;99522.78;;;9.89;63.98
12594;BME280;6362;50.208;9.182;2023-04-28T03:37:47;99519.34;;;9.87;64.24
12594;BME280;6362;50.208;9.182;2023-04-28T03:40:12;99516.81;;;9.81;63.78
12594;BME280;6362;50.208;9.182;2023-04-28T03:42:38;99520.31;;;9.78;63.77
12594;BME280;6362;50.208;9.182;2023-04-28T03:45:03;99518.53;;;9.82;63.65
12594;BME280;6362;50.208;9.182;2023-04-28T03:47:29;99509.00;;;9.81;63.49
12594;BME280;6362;50.208;9.182;2023-04-28T03:49:54;99513.34;;;9.80;63.36
12594;BME280;6362;50.208;9.182;2023-04-28T03:52:19;99507.31;;;9.79;63.40
12594;BME280;6362;50.208;9.182;2023-04-28T03:54:45;99496.84;;;9.83;63.31
12594;BME280;6362;50.208;9.182;2023-04-28T03:57:11;99501.09;;;9.91;63.26
12594;BME280;6362;50.208;9.182;2023-04-28T03:59:36;99500.16;;;9.97;63.04
12594;BME280;6362;50.208;9.182;2023-04-28T04:02:02;99498.47;;;9.96;63.38
12594;BME280;6362;50.208;9.182;2023-04-28T04:04:27;99486.31;;;9.96;62.91
12594;BME280;6362;50.208;9.182;2023-04-28T04:06:53;99487.28;;;9.89;63.26
12594;BME280;6362;50.208;9.182;2023-04-28T04:09:18;99490.75;;;9.90;63.35
12594;BME280;6362;50.208;9.182;2023-04-28T04:11:44;99482.06;;;9.91;63.17
12594;BME280;6362;50.208;9.182;2023-04-28T04:14:09;99480.31;;;9.91;63.30
12594;BME280;6362;50.208;9.182;2023-04-28T04:16:35;99480.44;;;9.84;63.61
12594;BME280;6362;50.208;9.182;2023-04-28T04:19:01;99479.63;;;9.78;63.61
12594;BME280;6362;50.208;9.182;2023-04-28T04:21:26;99483.91;;;9.81;63.73
12594;BME280;6362;50.208;9.182;2023-04-28T04:23:52;99472.66;;;9.81;63.80
12594;BME280;6362;50.208;9.182;2023-04-28T04:26:17;99471.81;;;9.77;64.19
12594;BME280;6362;50.208;9.182;2023-04-28T04:28:43;99462.25;;;9.84;64.08
12594;BME280;6362;50.208;9.182;2023-04-28T04:31:08;99465.72;;;9.81;64.40
12594;BME280;6362;50.208;9.182;2023-04-28T04:33:34;99463.13;;;9.81;64.75
12594;BME280;6362;50.208;9.182;2023-04-28T04:35:59;99457.06;;;9.82;64.41
12594;BME280;6362;50.208;9.182;2023-04-28T04:38:25;99452.66;;;9.89;63.77
12594;BME280;6362;50.208;9.182;2023-04-28T04:40:51;99462.16;;;9.88;64.26
12594;BME280;6362;50.208;9.182;2023-04-28T04:43:16;99449.06;;;9.97;64.03
12594;BME280;6362;50.208;9.182;2023-04-28T04:45:42;99461.25;;;9.94;63.81
12594;BME280;6362;50.208;9.182;2023-04-28T04:48:07;99460.41;;;9.92;63.99
12594;BME280;6362;50.208;9.182;2023-04-28T04:50:33;99462.06;;;9.97;63.71
12594;BME280;6362;50.208;9.182;2023-04-28T04:52:58;99454.25;;;10.00;64.08
12594;BME280;6362;50.208;9.182;2023-04-28T04:55:24;99452.47;;;10.02;63.79
12594;BME280;6362;50.208;9.182;2023-04-28T04:57:49;99460.25;;;10.02;63.65
12594;BME280;6362;50.208;9.182;2023-04-28T05:00:15;99456.78;;;10.05;63.29
12594;BME280;6362;50.208;9.182;2023-04-28T05:02:41;99467.13;;;10.08;63.65
12594;BME280;6362;50.208;9.182;2023-04-28T05:05:07;99462.81;;;10.07;63.74
12594;BME280;6362;50.208;9.182;2023-04-28T05:07:33;99465.28;;;10.15;63.60
12594;BME280;6362;50.208;9.182;2023-04-28T05:09:58;99464.50;;;10.11;63.89
12594;BME280;6362;50.208;9.182;2023-04-28T05:12:24;99470.53;;;10.10;63.88
12594;BME280;6362;50.208;9.182;2023-04-28T05:14:50;99479.28;;;10.04;64.27
12594;BME280;6362;50.208;9.182;2023-04-28T05:17:15;99475.81;;;10.04;64.68
12594;BME280;6362;50.208;9.182;2023-04-28T05:19:41;99475.91;;;9.99;65.71
12594;BME280;6362;50.208;9.182;2023-04-28T05:22:06;99492.31;;;10.01;66.33
12594;BME280;6362;50.208;9.182;2023-04-28T05:24:32;99495.03;;;9.94;67.54
12594;BME280;6362;50.208;9.182;2023-04-28T05:26:58;99502.09;;;9.81;68.59
12594;BME280;6362;50.208;9.182;2023-04-28T05:29:23;99505.66;;;9.72;70.13
12594;BME280;6362;50.208;9.182;2023-04-28T05:31:49;99501.47;;;9.59;72.46
12594;BME280;6362;50.208;9.182;2023-04-28T05:34:14;99492.13;;;9.41;73.17
12594;BME280;6362;50.208;9.182;2023-04-28T05:36:40;99494.78;;;9.35;74.15
12594;BME280;6362;50.208;9.182;2023-04-28T05:39:06;99487.00;;;9.32;74.62
12594;BME280;6362;50.208;9.182;2023-04-28T05:41:32;99486.22;;;9.29;75.66
12594;BME280;6362;50.208;9.182;2023-04-28T05:43:58;99480.19;;;9.23;76.16
12594;BME280;6362;50.208;9.182;2023-04-28T05:46:23;99474.13;;;9.24;76.80
12594;BME280;6362;50.208;9.182;2023-04-28T05:48:49;99480.22;;;9.19;78.00
12594;BME280;6362;50.208;9.182;2023-04-28T05:51:14;99487.16;;;9.18;77.98
12594;BME280;6362;50.208;9.182;2023-04-28T05:53:40;99488.00;;;9.20;78.97
12594;BME280;6362;50.208;9.182;2023-04-28T05:56:06;99498.41;;;9.17;79.18
12594;BME280;6362;50.208;9.182;2023-04-28T05:58:32;99494.13;;;9.10;79.16
12594;BME280;6362;50.208;9.182;2023-04-28T06:00:57;99497.66;;;9.06;80.26
12594;BME280;6362;50.208;9.182;2023-04-28T06:03:23;99510.66;;;9.02;79.95
12594;BME280;6362;50.208;9.182;2023-04-28T06:05:48;99508.91;;;9.02;80.07
12594;BME280;6362;50.208;9.182;2023-04-28T06:08:14;99509.81;;;8.96;80.22
12594;BME280;6362;50.208;9.182;2023-04-28T06:10:39;99509.84;;;8.95;80.12
12594;BME280;6362;50.208;9.182;2023-04-28T06:13:05;99521.13;;;8.86;80.64
12594;BME280;6362;50.208;9.182;2023-04-28T06:15:32;99518.53;;;8.88;80.80
12594;BME280;6362;50.208;9.182;2023-04-28T06:17:57;99519.50;;;8.75;80.93
12594;BME280;6362;50.208;9.182;2023-04-28T06:20:23;99502.22;;;8.73;81.30
12594;BME280;6362;50.208;9.182;2023-04-28T06:22:49;99484.81;;;8.89;83.74
12594;BME280;6362;50.208;9.182;2023-04-28T06:25:14;99492.31;;;9.20;80.65
12594;BME280;6362;50.208;9.182;2023-04-28T06:27:40;99505.28;;;9.23;79.67
12594;BME280;6362;50.208;9.182;2023-04-28T06:30:06;99496.47;;;9.39;78.61
12594;BME280;6362;50.208;9.182;2023-04-28T06:32:31;99491.19;;;9.47;78.24
12594;BME280;6362;50.208;9.182;2023-04-28T06:34:57;99497.47;;;9.26;79.39
12594;BME280;6362;50.208;9.182;2023-04-28T06:37:26;99498.31;;;9.26;80.08
12594;BME280;6362;50.208;9.182;2023-04-28T06:39:58;99503.47;;;9.31;80.08
12594;BME280;6362;50.208;9.182;2023-04-28T06:42:26;99504.44;;;9.22;80.26
12594;BME280;6362;50.208;9.182;2023-04-28T06:44:52;99508.81;;;9.14;80.56
12594;BME280;6362;50.208;9.182;2023-04-28T06:47:17;99508.91;;;9.02;80.96
12594;BME280;6362;50.208;9.182;2023-04-28T06:49:43;99523.75;;;8.85;82.00
12594;BME280;6362;50.208;9.182;2023-04-28T06:52:09;99525.63;;;8.58;83.32
12594;BME280;6362;50.208;9.182;2023-04-28T06:54:35;99535.22;;;8.50;84.69
12594;BME280;6362;50.208;9.182;2023-04-28T06:57:02;99531.75;;;8.51;84.60
12594;BME280;6362;50.208;9.182;2023-04-28T06:59:28;99520.50;;;8.49;85.04
12594;BME280;6362;50.208;9.182;2023-04-28T07:01:53;99519.69;;;8.45;85.21
12594;BME280;6362;50.208;9.182;2023-04-28T07:04:19;99520.53;;;8.43;85.35
12594;BME280;6362;50.208;9.182;2023-04-28T07:06:44;99517.91;;;8.49;85.54
12594;BME280;6362;50.208;9.182;2023-04-28T07:09:10;99531.75;;;8.48;86.06
12594;BME280;6362;50.208;9.182;2023-04-28T07:11:35;99528.25;;;8.54;86.31
12594;BME280;6362;50.208;9.182;2023-04-28T07:14:01;99518.75;;;8.57;86.03
12594;BME280;6362;50.208;9.182;2023-04-28T07:16:26;99519.59;;;8.61;86.28
12594;BME280;6362;50.208;9.182;2023-04-28T07:18:52;99520.38;;;8.70;86.36
12594;BME280;6362;50.208;9.182;2023-04-28T07:21:17;99508.22;;;8.80;86.38
12594;BME280;6362;50.208;9.182;2023-04-28T07:23:43;99493.41;;;8.93;86.58
12594;BME280;6362;50.208;9.182;2023-04-28T07:26:10;99503.72;;;9.05;86.20
12594;BME280;6362;50.208;9.182;2023-04-28T07:28:35;99501.03;;;9.14;86.12
12594;BME280;6362;50.208;9.182;2023-04-28T07:31:01;99505.25;;;9.24;85.60
12594;BME280;6362;50.208;9.182;2023-04-28T07:33:26;99504.34;;;9.33;85.45
12594;BME280;6362;50.208;9.182;2023-04-28T07:35:52;99494.81;;;9.32;85.15
12594;BME280;6362;50.208;9.182;2023-04-28T07:38:17;99491.38;;;9.30;84.51
12594;BME280;6362;50.208;9.182;2023-04-28T07:40:45;99484.50;;;9.24;84.93
12594;BME280;6362;50.208;9.182;2023-04-28T07:43:10;99474.97;;;9.26;84.81
12594;BME280;6362;50.208;9.182;2023-04-28T07:45:39;99473.13;;;9.39;84.89
12594;BME280;6362;50.208;9.182;2023-04-28T07:48:05;99468.78;;;9.41;85.37
12594;BME280;6362;50.208;9.182;2023-04-28T07:50:30;99473.91;;;9.46;84.72
12594;BME280;6362;50.208;9.182;2023-04-28T07:52:57;99473.00;;;9.48;84.37
12594;BME280;6362;50.208;9.182;2023-04-28T07:55:23;99478.22;;;9.47;84.51
12594;BME280;6362;50.208;9.182;2023-04-28T07:57:48;99463.44;;;9.53;84.59
12594;BME280;6362;50.208;9.182;2023-04-28T08:00:14;99454.75;;;9.58;84.37
12594;BME280;6362;50.208;9.182;2023-04-28T08:02:40;99452.13;;;9.59;84.51
12594;BME280;6362;50.208;9.182;2023-04-28T08:05:05;99444.25;;;9.68;83.89
12594;BME280;6362;50.208;9.182;2023-04-28T08:07:33;99447.72;;;9.67;83.84
12594;BME280;6362;50.208;9.182;2023-04-28T08:09:58;99444.16;;;9.74;83.87
12594;BME280;6362;50.208;9.182;2023-04-28T08:12:25;99445.00;;;9.76;83.56
12594;BME280;6362;50.208;9.182;2023-04-28T08:14:50;99446.72;;;9.79;83.81
12594;BME280;6362;50.208;9.182;2023-04-28T08:17:16;99451.94;;;9.77;83.73
12594;BME280;6362;50.208;9.182;2023-04-28T08:19:42;99458.06;;;9.70;83.86
12594;BME280;6362;50.208;9.182;2023-04-28T08:22:10;99457.19;;;9.71;83.79
12594;BME280;6362;50.208;9.182;2023-04-28T08:24:36;99458.09;;;9.69;84.42
12594;BME280;6362;50.208;9.182;2023-04-28T08:27:01;99463.19;;;9.76;83.51
12594;BME280;6362;50.208;9.182;2023-04-28T08:29:28;99464.03;;;9.78;83.30
12594;BME280;6362;50.208;9.182;2023-04-28T08:31:54;99470.25;;;9.64;83.91
12594;BME280;6362;50.208;9.182;2023-04-28T08:34:19;99473.75;;;9.61;84.42
12594;BME280;6362;50.208;9.182;2023-04-28T08:36:45;99479.75;;;9.66;84.76
12594;BME280;6362;50.208;9.182;2023-04-28T08:39:11;99484.03;;;9.69;85.07
12594;BME280;6362;50.208;9.182;2023-04-28T08:41:37;99483.91;;;9.81;84.99
12594;BME280;6362;50.208;9.182;2023-04-28T08:44:07;99486.53;;;9.79;85.06
12594;BME280;6362;50.208;9.182;2023-04-28T08:46:34;99483.75;;;9.93;85.15
12594;BME280;6362;50.208;9.182;2023-04-28T08:49:00;99484.44;;;10.08;85.12
12594;BME280;6362;50.208;9.182;2023-04-28T08:51:34;99481.63;;;10.26;84.47
12594;BME280;6362;50.208;9.182;2023-04-28T08:54:03;99486.63;;;10.41;84.07
12594;BME280;6362;50.208;9.182;2023-04-28T08:56:33;99490.84;;;10.50;83.91
12594;BME280;6362;50.208;9.182;2023-04-28T08:59:03;99473.28;;;10.64;83.90
12594;BME280;6362;50.208;9.182;2023-04-28T09:01:29;99480.91;;;10.76;83.80
12594;BME280;6362;50.208;9.182;2023-04-28T09:03:55;99484.41;;;10.74;83.58
12594;BME280;6362;50.208;9.182;2023-04-28T09:06:21;99482.63;;;10.76;83.28
12594;BME280;6362;50.208;9.182;2023-04-28T09:08:47;99495.91;;;10.61;83.55
12594;BME280;6362;50.208;9.182;2023-04-28T09:11:13;99493.34;;;10.54;83.52
12594;BME280;6362;50.208;9.182;2023-04-28T09:13:39;99489.13;;;10.50;83.63
12594;BME280;6362;50.208;9.182;2023-04-28T09:16:05;99483.06;;;10.50;83.98
12594;BME280;6362;50.208;9.182;2023-04-28T09:18:31;99490.00;;;10.48;84.37
12594;BME280;6362;50.208;9.182;2023-04-28T09:21:09;99498.78;;;10.41;84.67
12594;BME280;6362;50.208;9.182;2023-04-28T09:23:48;99497.91;;;10.40;84.53
12594;BME280;6362;50.208;9.182;2023-04-28T09:26:15;99485.66;;;10.50;84.52
12594;BME280;6362;50.208;9.182;2023-04-28T09:28:40;99488.09;;;10.59;85.44
12594;BME280;6362;50.208;9.182;2023-04-28T09:31:21;99487.06;;;10.72;85.16
12594;BME280;6362;50.208;9.182;2023-04-28T09:34:06;99495.72;;;10.71;84.52
12594;BME280;6362;50.208;9.182;2023-04-28T09:36:33;99489.53;;;10.80;85.03
12594;BME280;6362;50.208;9.182;2023-04-28T09:38:59;99485.16;;;10.82;84.77
12594;BME280;6362;50.208;9.182;2023-04-28T09:41:43;99494.00;;;10.70;84.99
12594;BME280;6362;50.208;9.182;2023-04-28T09:44:16;99480.72;;;10.87;84.94
12594;BME280;6362;50.208;9.182;2023-04-28T09:46:43;99490.44;;;10.77;84.13
12594;BME280;6362;50.208;9.182;2023-04-28T09:49:10;99476.56;;;10.78;84.86
12594;BME280;6362;50.208;9.182;2023-04-28T09:51:36;99484.19;;;10.89;84.91
12594;BME280;6362;50.208;9.182;2023-04-28T09:54:02;99479.66;;;11.00;84.44
12594;BME280;6362;50.208;9.182;2023-04-28T09:56:29;99476.97;;;11.06;84.56
12594;BME280;6362;50.208;9.182;2023-04-28T09:59:00;99483.91;;;11.06;84.22
12594;BME280;6362;50.208;9.182;2023-04-28T10:01:36;99483.91;;;11.04;83.97
12594;BME280;6362;50.208;9.182;2023-04-28T10:04:05;99487.31;;;11.09;84.01
12594;BME280;6362;50.208;9.182;2023-04-28T10:06:34;99483.72;;;11.15;83.86
12594;BME280;6362;50.208;9.182;2023-04-28T10:09:00;99487.00;;;11.26;83.53
12594;BME280;6362;50.208;9.182;2023-04-28T10:11:26;99482.88;;;11.15;83.63
12594;BME280;6362;50.208;9.182;2023-04-28T10:13:53;99494.00;;;11.24;83.92
12594;BME280;6362;50.208;9.182;2023-04-28T10:16:19;99486.03;;;11.33;84.13
12594;BME280;6362;50.208;9.182;2023-04-28T10:18:45;99492.69;;;11.48;84.48
12594;BME280;6362;50.208;9.182;2023-04-28T10:21:13;99496.94;;;11.55;83.75
12594;BME280;6362;50.208;9.182;2023-04-28T10:24:06;99500.28;;;11.62;83.81
12594;BME280;6362;50.208;9.182;2023-04-28T10:27:02;99488.78;;;11.72;83.68
12594;BME280;6362;50.208;9.182;2023-04-28T10:29:32;99488.66;;;11.78;83.90
12594;BME280;6362;50.208;9.182;2023-04-28T10:32:18;99487.66;;;11.87;83.50
12594;BME280;6362;50.208;9.182;2023-04-28T10:34:44;99482.34;;;11.92;83.79
12594;BME280;6362;50.208;9.182;2023-04-28T10:37:09;99486.63;;;11.96;83.09
12594;BME280;6362;50.208;9.182;2023-04-28T10:39:35;99483.16;;;11.95;83.07
12594;BME280;6362;50.208;9.182;2023-04-28T10:42:01;99483.03;;;12.01;83.84
12594;BME280;6362;50.208;9.182;2023-04-28T10:47:00;99471.28;;;12.22;81.27
12594;BME280;6362;50.208;9.182;2023-04-28T10:55:26;99472.50;;;12.46;80.14
12594;BME280;6362;50.208;9.182;2023-04-28T11:00:45;99457.22;;;12.68;80.11
12594;BME280;6362;50.208;9.182;2023-04-28T11:06:39;99464.28;;;12.99;79.58
12594;BME280;6362;50.208;9.182;2023-04-28T11:16:53;99453.16;;;13.28;79.13
12594;BME280;6362;50.208;9.182;2023-04-28T11:19:20;99448.59;;;13.34;78.68
12594;BME280;6362;50.208;9.182;2023-04-28T11:21:47;99445.16;;;13.32;78.31
12594;BME280;6362;50.208;9.182;2023-04-28T11:24:13;99450.94;;;13.45;77.94
12594;BME280;6362;50.208;9.182;2023-04-28T11:26:40;99443.44;;;13.64;77.54
12594;BME280;6362;50.208;9.182;2023-04-28T11:29:06;99441.69;;;13.64;77.51
12594;BME280;6362;50.208;9.182;2023-04-28T11:31:32;99441.56;;;13.69;77.07
12594;BME280;6362;50.208;9.182;2023-04-28T11:34:10;99446.66;;;13.73;75.55
12594;BME280;6362;50.208;9.182;2023-04-28T11:36:40;99444.00;;;13.44;76.92
12594;BME280;6362;50.208;9.182;2023-04-28T11:39:07;99450.53;;;13.59;77.39
12594;BME280;6362;50.208;9.182;2023-04-28T11:41:41;99457.00;;;13.77;76.07
12594;BME280;6362;50.208;9.182;2023-04-28T11:44:14;99441.94;;;13.86;75.64
12594;BME280;6362;50.208;9.182;2023-04-28T11:49:16;99450.31;;;13.97;76.87
12594;BME280;6362;50.208;9.182;2023-04-28T11:51:42;99434.97;;;14.15;76.03
12594;BME280;6362;50.208;9.182;2023-04-28T11:54:11;99431.13;;;14.26;74.99
12594;BME280;6362;50.208;9.182;2023-04-28T11:56:39;99432.44;;;14.41;76.12
12594;BME280;6362;50.208;9.182;2023-04-28T11:59:06;99424.94;;;14.59;74.82
12594;BME280;6362;50.208;9.182;2023-04-28T12:01:33;99428.72;;;14.50;74.21
12594;BME280;6362;50.208;9.182;2023-04-28T12:04:01;99429.44;;;14.55;74.35
12594;BME280;6362;50.208;9.182;2023-04-28T12:06:27;99427.34;;;14.65;75.35
12594;BME280;6362;50.208;9.182;2023-04-28T12:08:54;99428.91;;;14.70;74.21
12594;BME280;6362;50.208;9.182;2023-04-28T12:11:19;99433.06;;;14.77;75.15
12594;BME280;6362;50.208;9.182;2023-04-28T12:14:02;99438.03;;;14.85;74.70
12594;BME280;6362;50.208;9.182;2023-04-28T12:16:38;99440.38;;;14.94;73.16
12594;BME280;6362;50.208;9.182;2023-04-28T12:19:07;99431.44;;;14.73;73.21
12594;BME280;6362;50.208;9.182;2023-04-28T12:21:35;99430.38;;;14.52;74.30
12594;BME280;6362;50.208;9.182;2023-04-28T12:24:00;99426.19;;;14.47;75.00
12594;BME280;6362;50.208;9.182;2023-04-28T12:26:37;99431.72;;;14.36;75.88
12594;BME280;6362;50.208;9.182;2023-04-28T12:29:02;99421.63;;;14.53;75.55
12594;BME280;6362;50.208;9.182;2023-04-28T12:31:27;99418.22;;;14.78;74.44
12594;BME280;6362;50.208;9.182;2023-04-28T12:33:53;99419.50;;;14.91;73.96
12594;BME280;6362;50.208;9.182;2023-04-28T12:36:18;99412.94;;;15.04;72.27
12594;BME280;6362;50.208;9.182;2023-04-28T12:38:47;99411.78;;;15.13;73.00
12594;BME280;6362;50.208;9.182;2023-04-28T12:41:13;99413.81;;;15.30;71.94
12594;BME280;6362;50.208;9.182;2023-04-28T12:43:39;99409.75;;;15.46;72.47
12594;BME280;6362;50.208;9.182;2023-04-28T12:46:05;99417.50;;;15.49;71.72
12594;BME280;6362;50.208;9.182;2023-04-28T12:48:32;99412.63;;;15.64;70.71
12594;BME280;6362;50.208;9.182;2023-04-28T12:50:59;99422.13;;;15.68;69.94
12594;BME280;6362;50.208;9.182;2023-04-28T12:53:24;99411.91;;;15.58;70.10
12594;BME280;6362;50.208;9.182;2023-04-28T12:55:50;99411.28;;;15.77;70.47
12594;BME280;6362;50.208;9.182;2023-04-28T12:58:16;99405.94;;;16.25;71.35
12594;BME280;6362;50.208;9.182;2023-04-28T13:00:42;99409.53;;;16.67;67.24
12594;BME280;6362;50.208;9.182;2023-04-28T13:03:07;99416.50;;;16.68;67.19
12594;BME280;6362;50.208;9.182;2023-04-28T13:05:33;99415.56;;;16.69;67.84
12594;BME280;6362;50.208;9.182;2023-04-28T13:07:59;99412.88;;;16.72;67.23
12594;BME280;6362;50.208;9.182;2023-04-28T13:10:24;99409.47;;;16.68;67.79
12594;BME280;6362;50.208;9.182;2023-04-28T13:12:50;99408.56;;;16.69;67.65
12594;BME280;6362;50.208;9.182;2023-04-28T13:15:16;99401.59;;;16.90;66.87
12594;BME280;6362;50.208;9.182;2023-04-28T13:17:41;99399.88;;;17.30;66.12
12594;BME280;6362;50.208;9.182;2023-04-28T13:20:08;99411.84;;;17.37;65.39
12594;BME280;6362;50.208;9.182;2023-04-28T13:22:33;99416.13;;;17.39;65.76
12594;BME280;6362;50.208;9.182;2023-04-28T13:24:58;99402.13;;;17.39;64.80
12594;BME280;6362;50.208;9.182;2023-04-28T13:27:24;99398.66;;;17.97;64.11
12594;BME280;6362;50.208;9.182;2023-04-28T13:29:50;99377.81;;;18.30;63.16
12594;BME280;6362;50.208;9.182;2023-04-28T13:32:15;99382.19;;;18.84;63.50
12594;BME280;6362;50.208;9.182;2023-04-28T13:34:41;99382.31;;;18.98;61.34
12594;BME280;6362;50.208;9.182;2023-04-28T13:37:06;99376.13;;;19.17;60.85
12594;BME280;6362;50.208;9.182;2023-04-28T13:39:31;99380.44;;;19.35;62.40